Time,TemperatureF,DewpointF,PressureIn,WindDirection,WindDirectionDegrees,WindSpeedMPH,WindSpeedGustMPH,Humidity,HourlyPrecipIn,Conditions,Clouds,dailyrainin,SoftwareType,DateUTC
2013-01-14 07:00:00,61.1,59.1,30.08,North,0,5.0,9.0,93,0.00,,---,0.00,VWS V14.01,2013-01-14 12:00:00,
2013-01-14 08:00:00,0.0,0.0,30.10,North,0,0.0,0.0,0,0.45,,---,0.00,VWS V14.01,2013-01-14 13:00:00,
2013-01-14 08:44:00,61.1,59.1,30.11,North,0,5.0,5.0,93,0.45,,---,0.00,VWS V14.01,2013-01-14 13:44:00,
2013-01-14 08:45:00,61.1,59.1,30.11,North,0,5.0,5.0,93,0.45,,---,0.00,VWS V14.01,2013-01-14 13:45:00,
2013-01-14 08:50:00,60.0,58.6,30.11,North,360,5.0,6.0,95,0.45,,---,0.00,VWS V14.01,2013-01-14 13:50:00,
2013-01-14 09:04:00,59.8,58.4,30.11,North,360,6.0,9.0,95,0.46,,---,0.01,VWS V14.01,2013-01-14 14:04:00,
2013-01-14 09:09:00,59.8,58.4,30.12,North,360,5.0,9.0,95,0.46,,---,0.01,VWS V14.01,2013-01-14 14:09:00,
2013-01-14 09:14:00,59.8,58.4,30.12,North,360,4.0,9.0,95,0.46,,---,0.01,VWS V14.01,2013-01-14 14:14:00,
2013-01-14 09:19:00,59.8,58.4,30.12,North,360,7.0,10.0,95,0.47,,---,0.02,VWS V14.01,2013-01-14 14:19:00,
2013-01-14 09:24:00,59.8,58.7,30.12,North,360,3.0,10.0,96,0.48,,---,0.03,VWS V14.01,2013-01-14 14:24:00,
2013-01-14 09:29:00,59.8,58.7,30.12,North,360,11.0,11.0,96,0.48,,---,0.03,VWS V14.01,2013-01-14 14:29:00,
2013-01-14 09:34:00,59.8,58.7,30.11,North,360,5.0,13.0,96,0.49,,---,0.04,VWS V14.01,2013-01-14 14:34:00,
2013-01-14 09:39:00,59.7,58.6,30.11,North,360,10.0,13.0,96,0.49,,---,0.04,VWS V14.01,2013-01-14 14:39:00,
2013-01-14 09:44:00,59.6,58.2,30.11,North,360,9.0,13.0,95,0.49,,---,0.04,VWS V14.01,2013-01-14 14:44:00,
2013-01-14 09:49:00,59.6,58.5,30.11,North,360,6.0,13.0,96,0.49,,---,0.04,VWS V14.01,2013-01-14 14:49:00,
2013-01-14 09:54:00,59.6,58.5,30.11,North,360,9.0,13.0,96,0.49,,---,0.04,VWS V14.01,2013-01-14 14:54:00,
2013-01-14 10:00:00,59.6,58.5,30.11,North,360,8.0,13.0,96,0.49,,---,0.04,VWS V14.01,2013-01-14 15:00:00,
2013-01-14 10:05:00,59.7,58.6,30.11,North,360,8.0,10.0,96,0.00,,---,0.04,VWS V14.01,2013-01-14 15:05:00,
2013-01-14 10:10:00,59.7,58.6,30.12,North,360,6.0,10.0,96,0.00,,---,0.04,VWS V14.01,2013-01-14 15:10:00,
2013-01-14 10:15:00,59.7,58.6,30.12,North,360,5.0,10.0,96,0.00,,---,0.04,VWS V14.01,2013-01-14 15:15:00,
2013-01-14 10:20:00,59.8,58.7,30.12,North,360,3.0,10.0,96,0.00,,---,0.04,VWS V14.01,2013-01-14 15:20:00,
2013-01-14 10:25:00,59.8,58.7,30.12,North,360,4.0,10.0,96,0.00,,---,0.04,VWS V14.01,2013-01-14 15:25:00,
2013-01-14 10:30:00,59.9,58.8,30.12,North,360,2.0,10.0,96,0.00,,---,0.04,VWS V14.01,2013-01-14 15:30:00,
2013-01-14 10:35:00,60.0,58.9,30.12,North,360,3.0,10.0,96,0.00,,---,0.04,VWS V14.01,2013-01-14 15:35:00,
2013-01-14 10:40:00,60.1,59.0,30.12,North,360,4.0,10.0,96,0.00,,---,0.04,VWS V14.01,2013-01-14 15:40:00,
2013-01-14 10:45:00,60.2,59.1,30.12,North,360,4.0,10.0,96,0.00,,---,0.04,VWS V14.01,2013-01-14 15:45:00,
2013-01-14 10:50:00,60.3,59.2,30.11,North,360,3.0,10.0,96,0.00,,---,0.04,VWS V14.01,2013-01-14 15:50:00,
2013-01-14 10:55:00,60.4,59.3,30.12,North,360,4.0,10.0,96,0.01,,---,0.05,VWS V14.01,2013-01-14 15:55:00,
2013-01-14 11:00:00,60.5,59.4,30.11,North,360,5.0,10.0,96,0.01,,---,0.05,VWS V14.01,2013-01-14 16:00:00,
2013-01-14 11:05:00,60.6,59.5,30.11,North,360,7.0,10.0,96,0.01,,---,0.05,VWS V14.01,2013-01-14 16:05:00,
2013-01-14 11:10:00,60.7,59.6,30.11,North,360,5.0,10.0,96,0.01,,---,0.05,VWS V14.01,2013-01-14 16:10:00,
2013-01-14 11:15:00,60.8,59.7,30.11,North,360,5.0,10.0,96,0.01,,---,0.05,VWS V14.01,2013-01-14 16:15:00,
2013-01-14 11:20:00,60.8,59.7,30.10,North,360,4.0,10.0,96,0.01,,---,0.05,VWS V14.01,2013-01-14 16:20:00,
2013-01-14 11:25:00,60.9,59.8,30.10,North,360,5.0,11.0,96,0.01,,---,0.05,VWS V14.01,2013-01-14 16:25:00,
2013-01-14 11:30:00,61.0,59.9,30.10,North,360,3.0,11.0,96,0.01,,---,0.05,VWS V14.01,2013-01-14 16:30:00,
2013-01-14 11:36:00,61.0,59.9,30.10,North,360,4.0,11.0,96,0.01,,---,0.05,VWS V14.01,2013-01-14 16:36:00,
2013-01-14 11:41:00,61.1,60.0,30.09,North,360,6.0,11.0,96,0.01,,---,0.05,VWS V14.01,2013-01-14 16:41:00,
2013-01-14 11:46:00,61.1,60.0,30.09,North,360,5.0,11.0,96,0.01,,---,0.05,VWS V14.01,2013-01-14 16:46:00,
2013-01-14 11:51:00,61.2,60.0,30.09,North,360,12.0,12.0,96,0.02,,---,0.06,VWS V14.01,2013-01-14 16:51:00,
2013-01-14 11:56:00,61.2,60.0,30.09,North,360,10.0,12.0,96,0.03,,---,0.07,VWS V14.01,2013-01-14 16:56:00,
2013-01-14 12:01:00,61.1,60.0,30.09,North,360,5.0,12.0,96,0.04,,---,0.08,VWS V14.01,2013-01-14 17:01:00,
2013-01-14 12:06:00,61.2,60.0,30.09,North,360,10.0,10.0,96,0.05,,---,0.10,VWS V14.01,2013-01-14 17:06:00,
2013-01-14 12:11:00,61.3,60.2,30.08,North,360,9.0,12.0,96,0.07,,---,0.12,VWS V14.01,2013-01-14 17:11:00,
2013-01-14 12:16:00,61.3,60.2,30.08,North,360,10.0,12.0,96,0.08,,---,0.13,VWS V14.01,2013-01-14 17:16:00,
2013-01-14 12:21:00,61.4,60.2,30.08,North,360,9.0,12.0,96,0.11,,---,0.16,VWS V14.01,2013-01-14 17:21:00,
2013-01-14 12:26:00,61.4,60.2,30.08,North,360,7.0,12.0,96,0.11,,---,0.16,VWS V14.01,2013-01-14 17:26:00,
2013-01-14 12:31:00,61.5,60.3,30.07,North,360,4.0,12.0,96,0.12,,---,0.17,VWS V14.01,2013-01-14 17:31:00,
2013-01-14 12:36:00,61.6,60.5,30.07,North,360,2.0,12.0,96,0.12,,---,0.17,VWS V14.01,2013-01-14 17:36:00,
2013-01-14 12:42:00,61.6,60.5,30.07,North,360,6.0,12.0,96,0.13,,---,0.18,VWS V14.01,2013-01-14 17:42:00,
2013-01-14 12:47:00,61.6,60.5,30.07,North,360,6.0,12.0,96,0.13,,---,0.18,VWS V14.01,2013-01-14 17:47:00,
2013-01-14 12:52:00,61.5,60.3,30.07,North,360,6.0,12.0,96,0.14,,---,0.19,VWS V14.01,2013-01-14 17:52:00,
2013-01-14 12:57:00,61.6,60.5,30.07,North,360,6.0,12.0,96,0.14,,---,0.19,VWS V14.01,2013-01-14 17:57:00,
2013-01-14 13:02:00,61.6,60.5,30.07,North,360,6.0,12.0,96,0.14,,---,0.19,VWS V14.01,2013-01-14 18:02:00,
2013-01-14 13:07:00,61.7,60.5,30.07,North,360,6.0,10.0,96,0.10,,---,0.19,VWS V14.01,2013-01-14 18:07:00,
2013-01-14 13:12:00,61.8,60.7,30.07,North,360,3.0,10.0,96,0.11,,---,0.20,VWS V14.01,2013-01-14 18:12:00,
2013-01-14 13:17:00,62.0,61.1,30.07,North,360,6.0,11.0,97,0.11,,---,0.20,VWS V14.01,2013-01-14 18:17:00,
2013-01-14 13:22:00,62.0,61.1,30.06,North,360,4.0,11.0,97,0.11,,---,0.20,VWS V14.01,2013-01-14 18:22:00,
2013-01-14 13:27:00,62.1,61.2,30.06,North,360,3.0,11.0,97,0.11,,---,0.20,VWS V14.01,2013-01-14 18:27:00,
2013-01-14 13:32:00,62.2,61.0,30.06,North,360,3.0,11.0,96,0.11,,---,0.20,VWS V14.01,2013-01-14 18:32:00,
2013-01-14 13:37:00,62.3,61.2,30.06,North,360,4.0,11.0,96,0.11,,---,0.20,VWS V14.01,2013-01-14 18:37:00,
2013-01-14 13:42:00,62.4,61.2,30.06,North,360,4.0,11.0,96,0.11,,---,0.20,VWS V14.01,2013-01-14 18:42:00,
2013-01-14 13:47:00,62.4,61.2,30.06,North,360,6.0,11.0,96,0.11,,---,0.20,VWS V14.01,2013-01-14 18:47:00,
2013-01-14 13:53:00,62.5,61.6,30.06,North,360,2.0,11.0,97,0.11,,---,0.20,VWS V14.01,2013-01-14 18:53:00,
2013-01-14 13:58:00,62.6,61.7,30.06,North,360,6.0,11.0,97,0.11,,---,0.20,VWS V14.01,2013-01-14 18:58:00,
2013-01-14 14:03:00,62.6,61.5,30.06,North,360,5.0,5.0,96,0.01,,---,0.20,VWS V14.01,2013-01-14 19:03:00,
2013-01-14 14:08:00,62.7,61.5,30.06,North,360,4.0,7.0,96,0.01,,---,0.20,VWS V14.01,2013-01-14 19:08:00,
2013-01-14 14:13:00,62.7,61.5,30.06,North,360,3.0,7.0,96,0.01,,---,0.20,VWS V14.01,2013-01-14 19:13:00,
2013-01-14 14:18:00,62.9,61.8,30.07,North,360,2.0,7.0,96,0.01,,---,0.20,VWS V14.01,2013-01-14 19:18:00,
2013-01-14 14:24:00,62.9,61.8,30.07,North,360,4.0,7.0,96,0.02,,---,0.21,VWS V14.01,2013-01-14 19:24:00,
2013-01-14 14:29:00,62.9,61.8,30.07,North,360,3.0,7.0,96,0.02,,---,0.21,VWS V14.01,2013-01-14 19:29:00,
2013-01-14 14:34:00,63.0,61.8,30.07,North,360,2.0,7.0,96,0.02,,---,0.21,VWS V14.01,2013-01-14 19:34:00,
2013-01-14 14:39:00,63.1,62.2,30.07,North,360,2.0,7.0,97,0.02,,---,0.21,VWS V14.01,2013-01-14 19:39:00,
2013-01-14 14:44:00,63.1,61.9,30.08,North,360,6.0,7.0,96,0.02,,---,0.21,VWS V14.01,2013-01-14 19:44:00,
2013-01-14 14:49:00,63.2,62.0,30.07,North,360,3.0,7.0,96,0.02,,---,0.21,VWS V14.01,2013-01-14 19:49:00,
2013-01-14 14:54:00,63.2,62.0,30.08,North,360,8.0,8.0,96,0.02,,---,0.21,VWS V14.01,2013-01-14 19:54:00,
2013-01-14 14:59:00,63.2,62.0,30.08,North,360,5.0,8.0,96,0.02,,---,0.21,VWS V14.01,2013-01-14 19:59:00,
2013-01-14 15:04:00,63.3,62.1,30.08,North,360,5.0,5.0,96,0.01,,---,0.21,VWS V14.01,2013-01-14 20:04:00,
2013-01-14 15:09:00,63.3,62.1,30.08,North,360,3.0,8.0,96,0.01,,---,0.21,VWS V14.01,2013-01-14 20:09:00,
2013-01-14 15:14:00,63.4,62.2,30.09,North,360,4.0,8.0,96,0.01,,---,0.21,VWS V14.01,2013-01-14 20:14:00,
2013-01-14 15:19:00,63.3,62.1,30.09,North,360,3.0,8.0,96,0.01,,---,0.21,VWS V14.01,2013-01-14 20:19:00,
2013-01-14 15:24:00,63.3,62.1,30.09,North,360,7.0,9.0,96,0.01,,---,0.21,VWS V14.01,2013-01-14 20:24:00,
2013-01-14 15:29:00,63.3,62.1,30.08,North,360,5.0,9.0,96,0.01,,---,0.21,VWS V14.01,2013-01-14 20:29:00,
2013-01-14 15:34:00,63.3,62.1,30.09,North,360,9.0,9.0,96,0.01,,---,0.21,VWS V14.01,2013-01-14 20:34:00,
2013-01-14 15:39:00,63.3,62.1,30.09,North,360,5.0,11.0,96,0.01,,---,0.21,VWS V14.01,2013-01-14 20:39:00,
2013-01-14 15:45:00,63.3,62.1,30.09,North,360,6.0,11.0,96,0.01,,---,0.21,VWS V14.01,2013-01-14 20:45:00,
2013-01-14 15:50:00,63.4,62.2,30.10,North,360,5.0,11.0,96,0.01,,---,0.21,VWS V14.01,2013-01-14 20:50:00,
2013-01-14 15:55:00,63.4,62.2,30.10,North,360,6.0,11.0,96,0.01,,---,0.21,VWS V14.01,2013-01-14 20:55:00,
2013-01-14 16:00:00,63.4,62.2,30.10,North,360,5.0,11.0,96,0.01,,---,0.21,VWS V14.01,2013-01-14 21:00:00,
2013-01-14 16:05:00,63.4,62.2,30.10,North,360,5.0,9.0,96,0.00,,---,0.21,VWS V14.01,2013-01-14 21:05:00,
2013-01-14 16:10:00,63.4,62.2,30.09,North,360,4.0,9.0,96,0.01,,---,0.22,VWS V14.01,2013-01-14 21:10:00,
2013-01-14 16:15:00,63.4,62.2,30.10,North,360,5.0,11.0,96,0.01,,---,0.22,VWS V14.01,2013-01-14 21:15:00,
2013-01-14 16:20:00,63.4,62.2,30.10,North,360,6.0,11.0,96,0.01,,---,0.22,VWS V14.01,2013-01-14 21:20:00,
2013-01-14 16:25:00,63.3,62.1,30.10,North,360,7.0,11.0,96,0.01,,---,0.22,VWS V14.01,2013-01-14 21:25:00,
2013-01-14 16:30:00,63.3,62.1,30.10,North,360,6.0,11.0,96,0.01,,---,0.22,VWS V14.01,2013-01-14 21:30:00,
2013-01-14 16:35:00,63.3,62.1,30.11,North,360,4.0,11.0,96,0.01,,---,0.22,VWS V14.01,2013-01-14 21:35:00,
2013-01-14 16:40:00,63.2,62.0,30.11,North,360,6.0,11.0,96,0.01,,---,0.22,VWS V14.01,2013-01-14 21:40:00,
2013-01-14 16:45:00,63.1,61.9,30.11,North,360,9.0,11.0,96,0.01,,---,0.22,VWS V14.01,2013-01-14 21:45:00,
2013-01-14 16:51:00,63.1,61.9,30.11,North,360,6.0,11.0,96,0.01,,---,0.22,VWS V14.01,2013-01-14 21:51:00,
2013-01-14 16:56:00,63.1,61.9,30.11,North,360,6.0,11.0,96,0.01,,---,0.22,VWS V14.01,2013-01-14 21:56:00,
2013-01-14 17:01:00,63.0,61.8,30.11,North,360,7.0,11.0,96,0.01,,---,0.22,VWS V14.01,2013-01-14 22:01:00,
2013-01-14 17:06:00,63.0,61.8,30.10,North,360,5.0,8.0,96,0.01,,---,0.22,VWS V14.01,2013-01-14 22:06:00,
2013-01-14 17:11:00,63.0,61.8,30.11,North,360,3.0,8.0,96,0.01,,---,0.22,VWS V14.01,2013-01-14 22:11:00,
2013-01-14 17:16:00,63.0,61.8,30.11,North,360,1.0,8.0,96,0.01,,---,0.22,VWS V14.01,2013-01-14 22:16:00,
2013-01-14 17:21:00,63.0,61.8,30.10,North,360,2.0,8.0,96,0.01,,---,0.22,VWS V14.01,2013-01-14 22:21:00,
2013-01-14 17:26:00,63.0,61.8,30.11,North,360,3.0,8.0,96,0.01,,---,0.22,VWS V14.01,2013-01-14 22:26:00,
2013-01-14 17:31:00,62.9,61.8,30.10,North,360,2.0,8.0,96,0.01,,---,0.22,VWS V14.01,2013-01-14 22:31:00,
2013-01-14 17:36:00,62.9,61.8,30.10,North,360,0.0,8.0,96,0.01,,---,0.22,VWS V14.01,2013-01-14 22:36:00,
2013-01-14 17:41:00,62.9,61.8,30.10,North,360,1.0,8.0,96,0.01,,---,0.22,VWS V14.01,2013-01-14 22:41:00,
2013-01-14 17:46:00,62.9,62.0,30.11,North,360,3.0,8.0,97,0.01,,---,0.22,VWS V14.01,2013-01-14 22:46:00,
2013-01-14 17:51:00,63.0,62.1,30.10,North,360,0.0,8.0,97,0.01,,---,0.22,VWS V14.01,2013-01-14 22:51:00,
2013-01-14 17:56:00,63.0,62.1,30.11,North,360,2.0,8.0,97,0.01,,---,0.22,VWS V14.01,2013-01-14 22:56:00,
2013-01-14 18:01:00,63.0,62.1,30.10,North,360,2.0,8.0,97,0.01,,---,0.22,VWS V14.01,2013-01-14 23:01:00,
2013-01-14 18:06:00,63.0,62.1,30.10,North,360,1.0,3.0,97,0.00,,---,0.22,VWS V14.01,2013-01-14 23:06:00,
2013-01-14 18:11:00,63.0,62.1,30.11,North,360,0.0,3.0,97,0.00,,---,0.22,VWS V14.01,2013-01-14 23:11:00,
2013-01-14 18:17:00,63.0,62.1,30.11,North,360,5.0,6.0,97,0.00,,---,0.22,VWS V14.01,2013-01-14 23:17:00,
2013-01-14 18:22:00,62.9,61.8,30.10,North,360,0.0,6.0,96,0.00,,---,0.22,VWS V14.01,2013-01-14 23:22:00,
2013-01-14 18:27:00,62.9,62.0,30.10,North,360,2.0,6.0,97,0.00,,---,0.22,VWS V14.01,2013-01-14 23:27:00,
2013-01-14 18:32:00,62.9,62.0,30.11,North,360,0.0,6.0,97,0.00,,---,0.22,VWS V14.01,2013-01-14 23:32:00,
2013-01-14 18:37:00,62.9,62.0,30.11,North,360,3.0,6.0,97,0.00,,---,0.22,VWS V14.01,2013-01-14 23:37:00,
2013-01-14 18:42:00,62.9,62.0,30.11,North,360,0.0,6.0,97,0.00,,---,0.22,VWS V14.01,2013-01-14 23:42:00,
2013-01-14 18:47:00,62.9,62.0,30.11,North,360,0.0,6.0,97,0.00,,---,0.22,VWS V14.01,2013-01-14 23:47:00,
2013-01-14 18:52:00,63.0,62.1,30.11,North,360,0.0,6.0,97,0.02,,---,0.24,VWS V14.01,2013-01-14 23:52:00,
2013-01-14 18:57:00,62.9,62.0,30.11,North,360,0.0,6.0,97,0.03,,---,0.25,VWS V14.01,2013-01-14 23:57:00,
2013-01-14 19:02:00,63.0,62.1,30.10,North,360,1.0,6.0,97,0.04,,---,0.26,VWS V14.01,2013-01-15 00:02:00,
2013-01-14 19:07:00,63.0,62.1,30.10,North,360,0.0,3.0,97,0.05,,---,0.27,VWS V14.01,2013-01-15 00:07:00,
2013-01-14 19:12:00,63.1,62.2,30.11,North,360,3.0,5.0,97,0.07,,---,0.29,VWS V14.01,2013-01-15 00:12:00,
2013-01-14 19:17:00,63.1,61.9,30.11,North,360,1.0,5.0,96,0.08,,---,0.30,VWS V14.01,2013-01-15 00:17:00,
2013-01-14 19:22:00,63.1,61.9,30.11,North,360,2.0,5.0,96,0.10,,---,0.32,VWS V14.01,2013-01-15 00:22:00,
2013-01-14 19:27:00,63.1,62.2,30.11,North,360,0.0,5.0,97,0.10,,---,0.32,VWS V14.01,2013-01-15 00:27:00,
2013-01-14 19:32:00,63.1,62.2,30.11,North,360,0.0,5.0,97,0.11,,---,0.33,VWS V14.01,2013-01-15 00:32:00,
2013-01-14 19:37:00,63.0,61.8,30.11,North,360,3.0,5.0,96,0.12,,---,0.34,VWS V14.01,2013-01-15 00:37:00,
2013-01-14 19:43:00,62.9,61.8,30.11,North,360,0.0,5.0,96,0.12,,---,0.34,VWS V14.01,2013-01-15 00:43:00,
2013-01-14 19:48:00,62.9,61.8,30.11,North,360,0.0,5.0,96,0.12,,---,0.34,VWS V14.01,2013-01-15 00:48:00,
2013-01-14 19:52:00,62.9,61.8,30.11,North,360,0.0,5.0,96,0.12,,---,0.34,VWS V14.01,2013-01-15 00:52:00,
2013-01-14 19:57:00,62.9,62.0,30.11,North,360,0.0,5.0,97,0.12,,---,0.34,VWS V14.01,2013-01-15 00:57:00,
2013-01-14 20:03:00,62.9,62.0,30.11,North,360,0.0,0.0,97,0.08,,---,0.34,VWS V14.01,2013-01-15 01:03:00,
2013-01-14 20:08:00,62.9,62.0,30.11,North,360,0.0,0.0,97,0.08,,---,0.34,VWS V14.01,2013-01-15 01:08:00,
2013-01-14 20:13:00,62.9,62.0,30.11,North,360,2.0,2.0,97,0.08,,---,0.34,VWS V14.01,2013-01-15 01:13:00,
2013-01-14 20:18:00,63.0,62.1,30.11,North,360,0.0,3.0,97,0.08,,---,0.34,VWS V14.01,2013-01-15 01:18:00,
2013-01-14 20:23:00,62.9,62.0,30.11,North,360,1.0,3.0,97,0.08,,---,0.34,VWS V14.01,2013-01-15 01:23:00,
2013-01-14 20:28:00,62.9,62.0,30.11,North,360,0.0,3.0,97,0.08,,---,0.34,VWS V14.01,2013-01-15 01:28:00,
2013-01-14 20:33:00,62.8,61.9,30.11,North,360,0.0,3.0,97,0.08,,---,0.34,VWS V14.01,2013-01-15 01:33:00,
2013-01-14 20:38:00,62.8,61.9,30.10,North,360,0.0,3.0,97,0.08,,---,0.34,VWS V14.01,2013-01-15 01:38:00,
2013-01-14 20:43:00,62.7,61.8,30.10,North,360,0.0,3.0,97,0.08,,---,0.34,VWS V14.01,2013-01-15 01:43:00,
2013-01-14 20:48:00,62.7,61.8,30.10,North,360,0.0,3.0,97,0.08,,---,0.34,VWS V14.01,2013-01-15 01:48:00,
2013-01-14 20:53:00,62.6,61.7,30.10,North,360,1.0,3.0,97,0.08,,---,0.34,VWS V14.01,2013-01-15 01:53:00,
2013-01-14 20:58:00,62.6,61.7,30.11,North,360,5.0,6.0,97,0.08,,---,0.34,VWS V14.01,2013-01-15 01:58:00,
2013-01-14 21:03:00,62.6,61.7,30.11,North,360,1.0,2.0,97,0.00,,---,0.34,VWS V14.01,2013-01-15 02:03:00,
2013-01-14 21:08:00,62.6,61.7,30.11,North,360,0.0,2.0,97,0.00,,---,0.34,VWS V14.01,2013-01-15 02:08:00,
2013-01-14 21:13:00,62.5,61.6,30.11,North,360,0.0,2.0,97,0.00,,---,0.34,VWS V14.01,2013-01-15 02:13:00,
2013-01-14 21:19:00,62.5,61.6,30.11,North,360,0.0,2.0,97,0.00,,---,0.34,VWS V14.01,2013-01-15 02:19:00,
2013-01-14 21:24:00,62.4,61.5,30.11,North,360,0.0,2.0,97,0.00,,---,0.34,VWS V14.01,2013-01-15 02:24:00,
2013-01-14 21:29:00,62.4,61.5,30.10,North,360,1.0,2.0,97,0.00,,---,0.34,VWS V14.01,2013-01-15 02:29:00,
2013-01-14 21:34:00,62.4,61.5,30.10,North,360,0.0,2.0,97,0.00,,---,0.34,VWS V14.01,2013-01-15 02:34:00,
2013-01-14 21:39:00,62.4,61.5,30.10,North,360,0.0,2.0,97,0.00,,---,0.34,VWS V14.01,2013-01-15 02:39:00,
2013-01-14 21:44:00,62.3,61.4,30.10,North,360,0.0,2.0,97,0.00,,---,0.34,VWS V14.01,2013-01-15 02:44:00,
2013-01-14 21:49:00,62.2,61.3,30.10,North,360,0.0,2.0,97,0.00,,---,0.34,VWS V14.01,2013-01-15 02:49:00,
2013-01-14 21:54:00,62.2,61.3,30.10,North,360,2.0,4.0,97,0.00,,---,0.34,VWS V14.01,2013-01-15 02:54:00,
2013-01-14 21:59:00,62.2,61.3,30.10,North,360,1.0,4.0,97,0.00,,---,0.34,VWS V14.01,2013-01-15 02:59:00,
2013-01-14 22:04:00,62.1,61.2,30.10,North,360,2.0,2.0,97,0.00,,---,0.34,VWS V14.01,2013-01-15 03:04:00,
2013-01-14 22:09:00,62.1,61.2,30.10,North,360,2.0,5.0,97,0.00,,---,0.34,VWS V14.01,2013-01-15 03:09:00,
2013-01-14 22:14:00,62.2,61.3,30.10,North,360,3.0,6.0,97,0.00,,---,0.34,VWS V14.01,2013-01-15 03:14:00,
2013-01-14 22:19:00,62.1,61.2,30.10,North,360,3.0,6.0,97,0.00,,---,0.34,VWS V14.01,2013-01-15 03:19:00,
2013-01-14 22:24:00,61.7,60.8,30.10,North,360,6.0,9.0,97,0.00,,---,0.34,VWS V14.01,2013-01-15 03:24:00,
2013-01-14 22:30:00,61.0,59.9,30.10,North,360,5.0,9.0,96,0.00,,---,0.34,VWS V14.01,2013-01-15 03:30:00,
2013-01-14 22:35:00,60.3,59.2,30.10,North,360,3.0,9.0,96,0.00,,---,0.34,VWS V14.01,2013-01-15 03:35:00,
2013-01-14 22:40:00,59.8,58.7,30.10,North,360,0.0,9.0,96,0.00,,---,0.34,VWS V14.01,2013-01-15 03:40:00,
2013-01-14 22:45:00,59.3,58.2,30.10,North,360,2.0,9.0,96,0.00,,---,0.34,VWS V14.01,2013-01-15 03:45:00,
2013-01-14 22:50:00,59.0,57.9,30.11,North,360,4.0,9.0,96,0.00,,---,0.34,VWS V14.01,2013-01-15 03:50:00,
2013-01-14 22:55:00,58.7,57.6,30.11,North,360,5.0,10.0,96,0.00,,---,0.34,VWS V14.01,2013-01-15 03:55:00,
2013-01-14 23:00:00,58.4,57.3,30.11,North,360,6.0,10.0,96,0.00,,---,0.34,VWS V14.01,2013-01-15 04:00:00,
2013-01-14 23:05:00,58.2,57.4,30.12,North,360,5.0,7.0,97,0.00,,---,0.34,VWS V14.01,2013-01-15 04:05:00,
2013-01-14 23:10:00,58.0,57.2,30.12,North,360,3.0,7.0,97,0.00,,---,0.34,VWS V14.01,2013-01-15 04:10:00,
2013-01-14 23:15:00,57.9,57.1,30.12,North,360,0.0,7.0,97,0.00,,---,0.34,VWS V14.01,2013-01-15 04:15:00,
2013-01-14 23:20:00,57.9,57.1,30.12,North,360,5.0,7.0,97,0.00,,---,0.34,VWS V14.01,2013-01-15 04:20:00,
2013-01-14 23:26:00,57.7,56.9,30.12,North,360,5.0,7.0,97,0.00,,---,0.34,VWS V14.01,2013-01-15 04:26:00,
2013-01-14 23:31:00,57.6,56.8,30.12,North,360,2.0,7.0,97,0.00,,---,0.34,VWS V14.01,2013-01-15 04:31:00,
2013-01-14 23:36:00,57.4,56.6,30.13,North,360,7.0,14.0,97,0.00,,---,0.34,VWS V14.01,2013-01-15 04:36:00,
2013-01-14 23:41:00,57.1,56.0,30.14,North,360,2.0,14.0,96,0.00,,---,0.34,VWS V14.01,2013-01-15 04:41:00,
2013-01-14 23:46:00,56.8,56.0,30.14,North,360,11.0,14.0,97,0.00,,---,0.34,VWS V14.01,2013-01-15 04:46:00,
2013-01-14 23:51:00,56.6,55.5,30.13,North,360,5.0,16.0,96,0.00,,---,0.34,VWS V14.01,2013-01-15 04:51:00,
2013-01-14 23:56:00,56.4,55.3,30.13,North,360,10.0,16.0,96,0.00,,---,0.34,VWS V14.01,2013-01-15 04:56:00,